sensor_id;sensor_type;location;lat;lon;timestamp;pressure;altitude;pressure_sealevel;temperature;humidity
71195;BME280;58908;51.426;7.714;2024-03-23T00:55:19;99046.59;;;6.78;100.00
71195;BME280;58908;51.426;7.714;2024-03-23T00:57:45;99031.84;;;6.75;100.00
71195;BME280;58908;51.426;7.714;2024-03-23T01:00:12;99035.03;;;6.65;100.00
71195;BME280;58908;51.426;7.714;2024-03-23T01:02:37;99035.03;;;6.65;100.00
71195;BME280;58908;51.426;7.714;2024-03-23T01:05:04;99033.75;;;6.56;100.00
71195;BME280;58908;51.426;7.714;2024-03-23T01:07:29;99031.47;;;6.50;100.00
71195;BME280;58908;51.426;7.714;2024-03-23T01:09:57;99032.00;;;6.40;100.00
71195;BME280;58908;51.426;7.714;2024-03-23T01:12:22;99016.97;;;6.43;100.00
71195;BME280;58908;51.426;7.714;2024-03-23T01:14:48;99020.72;;;6.55;100.00
71195;BME280;58908;51.426;7.714;2024-03-23T01:17:13;99011.50;;;6.48;100.00
71195;BME280;58908;51.426;7.714;2024-03-23T01:19:40;99001.19;;;6.45;100.00
71195;BME280;58908;51.426;7.714;2024-03-23T01:22:06;99006.47;;;6.28;100.00
71195;BME280;58908;51.426;7.714;2024-03-23T01:24:32;99013.31;;;6.30;100.00
71195;BME280;58908;51.426;7.714;2024-03-23T01:26:59;99018.31;;;6.35;100.00
71195;BME280;58908;51.426;7.714;2024-03-23T01:29:25;99020.94;;;6.18;100.00
71195;BME280;58908;51.426;7.714;2024-03-23T01:31:50;99018.03;;;6.24;100.00
71195;BME280;58908;51.426;7.714;2024-03-23T01:34:17;99003.25;;;6.23;100.00
71195;BME280;58908;51.426;7.714;2024-03-23T01:36:42;98997.44;;;6.16;100.00
71195;BME280;58908;51.426;7.714;2024-03-23T01:39:08;98991.31;;;6.00;100.00
71195;BME280;58908;51.426;7.714;2024-03-23T01:41:34;98991.31;;;6.00;100.00
71195;BME280;58908;51.426;7.714;2024-03-23T01:44:03;98993.38;;;6.11;100.00
71195;BME280;58908;51.426;7.714;2024-03-23T01:46:29;98997.25;;;6.04;100.00
71195;BME280;58908;51.426;7.714;2024-03-23T01:48:56;98996.25;;;5.89;100.00
71195;BME280;58908;51.426;7.714;2024-03-23T01:51:21;99006.56;;;5.92;100.00
71195;BME280;58908;51.426;7.714;2024-03-23T01:53:48;98999.16;;;6.00;100.00
71195;BME280;58908;51.426;7.714;2024-03-23T01:56:13;98987.47;;;6.07;100.00
71195;BME280;58908;51.426;7.714;2024-03-23T01:58:40;98992.84;;;6.04;100.00
71195;BME280;58908;51.426;7.714;2024-03-23T02:01:06;98991.22;;;6.19;100.00
71195;BME280;58908;51.426;7.714;2024-03-23T02:03:33;98984.84;;;6.07;100.00
71195;BME280;58908;51.426;7.714;2024-03-23T02:05:58;98988.31;;;6.08;100.00
71195;BME280;58908;51.426;7.714;2024-03-23T02:08:24;98982.13;;;6.09;100.00
71195;BME280;58908;51.426;7.714;2024-03-23T02:10:50;98981.38;;;6.07;100.00
71195;BME280;58908;51.426;7.714;2024-03-23T02:13:17;98993.94;;;6.00;100.00
71195;BME280;58908;51.426;7.714;2024-03-23T02:15:42;99003.19;;;6.07;100.00
71195;BME280;58908;51.426;7.714;2024-03-23T02:18:11;98988.63;;;6.02;100.00
71195;BME280;58908;51.426;7.714;2024-03-23T02:20:36;98982.47;;;6.03;100.00
71195;BME280;58908;51.426;7.714;2024-03-23T02:23:04;99006.31;;;5.97;100.00
71195;BME280;58908;51.426;7.714;2024-03-23T02:25:31;99000.56;;;5.90;100.00
71195;BME280;58908;51.426;7.714;2024-03-23T02:27:57;98992.81;;;5.89;100.00
71195;BME280;58908;51.426;7.714;2024-03-23T02:30:23;98984.38;;;5.99;100.00
71195;BME280;58908;51.426;7.714;2024-03-23T02:32:50;98971.00;;;5.88;100.00
71195;BME280;58908;51.426;7.714;2024-03-23T02:35:15;98983.50;;;5.83;100.00
71195;BME280;58908;51.426;7.714;2024-03-23T02:37:41;98993.09;;;5.83;100.00
71195;BME280;58908;51.426;7.714;2024-03-23T02:40:08;98984.59;;;5.78;100.00
71195;BME280;58908;51.426;7.714;2024-03-23T02:42:34;98988.28;;;5.74;100.00
71195;BME280;58908;51.426;7.714;2024-03-23T02:45:00;98990.41;;;5.66;100.00
71195;BME280;58908;51.426;7.714;2024-03-23T02:47:26;98980.38;;;5.75;100.00
71195;BME280;58908;51.426;7.714;2024-03-23T02:49:51;98984.59;;;5.61;100.00
71195;BME280;58908;51.426;7.714;2024-03-23T02:52:19;98987.44;;;5.73;100.00
71195;BME280;58908;51.426;7.714;2024-03-23T02:54:44;98975.88;;;5.60;100.00
71195;BME280;58908;51.426;7.714;2024-03-23T02:57:12;98972.44;;;5.60;100.00
71195;BME280;58908;51.426;7.714;2024-03-23T02:59:37;98970.81;;;5.74;100.00
71195;BME280;58908;51.426;7.714;2024-03-23T03:02:04;98962.81;;;5.77;100.00
71195;BME280;58908;51.426;7.714;2024-03-23T03:04:29;98963.69;;;5.78;100.00
71195;BME280;58908;51.426;7.714;2024-03-23T03:06:55;98968.28;;;5.73;100.00
71195;BME280;58908;51.426;7.714;2024-03-23T03:09:21;98979.31;;;5.79;100.00
71195;BME280;58908;51.426;7.714;2024-03-23T03:11:47;98981.13;;;5.77;100.00
71195;BME280;58908;51.426;7.714;2024-03-23T03:14:14;98981.09;;;5.60;100.00
71195;BME280;58908;51.426;7.714;2024-03-23T03:16:40;98980.78;;;5.49;100.00
71195;BME280;58908;51.426;7.714;2024-03-23T03:19:05;98987.81;;;5.66;100.00
71195;BME280;58908;51.426;7.714;2024-03-23T03:21:32;98996.19;;;5.55;100.00
71195;BME280;58908;51.426;7.714;2024-03-23T03:23:57;98989.66;;;5.47;100.00
71195;BME280;58908;51.426;7.714;2024-03-23T03:26:23;99002.84;;;5.62;100.00
71195;BME280;58908;51.426;7.714;2024-03-23T03:28:49;99005.34;;;5.64;100.00
71195;BME280;58908;51.426;7.714;2024-03-23T03:31:17;99001.69;;;5.68;100.00
71195;BME280;58908;51.426;7.714;2024-03-23T03:33:43;98991.34;;;5.65;100.00
71195;BME280;58908;51.426;7.714;2024-03-23T03:36:09;98989.56;;;5.48;100.00
71195;BME280;58908;51.426;7.714;2024-03-23T03:38:34;98988.34;;;5.55;100.00
71195;BME280;58908;51.426;7.714;2024-03-23T03:41:01;98995.81;;;5.46;100.00
71195;BME280;58908;51.426;7.714;2024-03-23T03:43:26;98989.81;;;5.25;100.00
71195;BME280;58908;51.426;7.714;2024-03-23T03:45:52;98991.94;;;5.36;100.00
71195;BME280;58908;51.426;7.714;2024-03-23T03:48:19;98989.72;;;5.45;100.00
71195;BME280;58908;51.426;7.714;2024-03-23T03:50:45;98986.94;;;5.48;100.00
71195;BME280;58908;51.426;7.714;2024-03-23T03:53:11;98969.56;;;5.47;100.00
71195;BME280;58908;51.426;7.714;2024-03-23T03:55:37;98963.28;;;5.51;100.00
71195;BME280;58908;51.426;7.714;2024-03-23T03:58:02;98962.19;;;5.55;100.00
71195;BME280;58908;51.426;7.714;2024-03-23T04:00:29;98956.97;;;5.55;100.00
71195;BME280;58908;51.426;7.714;2024-03-23T04:02:54;98959.59;;;5.55;100.00
71195;BME280;58908;51.426;7.714;2024-03-23T04:05:22;98974.34;;;5.56;100.00
71195;BME280;58908;51.426;7.714;2024-03-23T04:07:47;98979.09;;;5.48;100.00
71195;BME280;58908;51.426;7.714;2024-03-23T04:10:14;98970.25;;;5.51;100.00
71195;BME280;58908;51.426;7.714;2024-03-23T04:12:40;98967.28;;;5.41;100.00
71195;BME280;58908;51.426;7.714;2024-03-23T04:15:06;98980.88;;;5.48;100.00
71195;BME280;58908;51.426;7.714;2024-03-23T04:17:32;98973.66;;;5.53;100.00
71195;BME280;58908;51.426;7.714;2024-03-23T04:19:59;98977.34;;;5.49;100.00
71195;BME280;58908;51.426;7.714;2024-03-23T04:22:26;98978.44;;;5.26;100.00
71195;BME280;58908;51.426;7.714;2024-03-23T04:24:53;98984.38;;;5.30;100.00
71195;BME280;58908;51.426;7.714;2024-03-23T04:27:18;98977.25;;;5.33;100.00
71195;BME280;58908;51.426;7.714;2024-03-23T04:29:46;98957.22;;;5.15;100.00
71195;BME280;58908;51.426;7.714;2024-03-23T04:32:11;98967.75;;;5.14;100.00
71195;BME280;58908;51.426;7.714;2024-03-23T04:34:39;98983.69;;;5.26;100.00
71195;BME280;58908;51.426;7.714;2024-03-23T04:37:04;98977.19;;;5.35;100.00
71195;BME280;58908;51.426;7.714;2024-03-23T04:39:32;98984.09;;;5.36;100.00
71195;BME280;58908;51.426;7.714;2024-03-23T04:41:58;98984.00;;;5.37;100.00
71195;BME280;58908;51.426;7.714;2024-03-23T04:44:24;98977.63;;;5.26;100.00
71195;BME280;58908;51.426;7.714;2024-03-23T04:46:50;98977.53;;;5.27;100.00
71195;BME280;58908;51.426;7.714;2024-03-23T04:49:17;98964.31;;;5.30;100.00
71195;BME280;58908;51.426;7.714;2024-03-23T04:51:43;98969.00;;;5.24;100.00
71195;BME280;58908;51.426;7.714;2024-03-23T04:54:11;98956.00;;;5.22;100.00
71195;BME280;58908;51.426;7.714;2024-03-23T04:56:38;98951.06;;;5.16;100.00
71195;BME280;58908;51.426;7.714;2024-03-23T04:59:05;98955.72;;;5.10;100.00
71195;BME280;58908;51.426;7.714;2024-03-23T05:01:30;98953.81;;;5.13;100.00
71195;BME280;58908;51.426;7.714;2024-03-23T05:03:57;98953.75;;;5.15;100.00
71195;BME280;58908;51.426;7.714;2024-03-23T05:06:22;98951.31;;;5.12;100.00
71195;BME280;58908;51.426;7.714;2024-03-23T05:08:48;98955.28;;;5.19;100.00
71195;BME280;58908;51.426;7.714;2024-03-23T05:11:14;98953.13;;;5.10;100.00
71195;BME280;58908;51.426;7.714;2024-03-23T05:13:42;98950.59;;;5.08;100.00
71195;BME280;58908;51.426;7.714;2024-03-23T05:16:07;98948.03;;;5.07;100.00
71195;BME280;58908;51.426;7.714;2024-03-23T05:18:34;98949.75;;;5.08;100.00
71195;BME280;58908;51.426;7.714;2024-03-23T05:20:59;98957.66;;;5.06;100.00
71195;BME280;58908;51.426;7.714;2024-03-23T05:23:26;98961.97;;;5.07;100.00
71195;BME280;58908;51.426;7.714;2024-03-23T05:25:51;98960.06;;;5.11;100.00
71195;BME280;58908;51.426;7.714;2024-03-23T05:28:18;98949.94;;;5.03;100.00
71195;BME280;58908;51.426;7.714;2024-03-23T05:30:44;98953.91;;;5.12;100.00
71195;BME280;58908;51.426;7.714;2024-03-23T05:33:15;98957.09;;;5.18;100.00
71195;BME280;58908;51.426;7.714;2024-03-23T05:35:41;98958.78;;;5.19;100.00
71195;BME280;58908;51.426;7.714;2024-03-23T05:38:07;98957.50;;;5.09;100.00
71195;BME280;58908;51.426;7.714;2024-03-23T05:40:32;98954.50;;;5.00;100.00
71195;BME280;58908;51.426;7.714;2024-03-23T05:43:02;98952.34;;;5.08;100.00
71195;BME280;58908;51.426;7.714;2024-03-23T05:45:27;98958.94;;;4.98;100.00
71195;BME280;58908;51.426;7.714;2024-03-23T05:47:55;98956.09;;;5.02;100.00
71195;BME280;58908;51.426;7.714;2024-03-23T05:50:21;98947.97;;;5.08;100.00
71195;BME280;58908;51.426;7.714;2024-03-23T05:52:48;98954.59;;;5.15;100.00
71195;BME280;58908;51.426;7.714;2024-03-23T05:55:14;98953.00;;;5.13;100.00
71195;BME280;58908;51.426;7.714;2024-03-23T05:57:40;98952.78;;;5.17;100.00
71195;BME280;58908;51.426;7.714;2024-03-23T06:00:06;98950.59;;;5.08;100.00
71195;BME280;58908;51.426;7.714;2024-03-23T06:02:35;98952.84;;;5.16;100.00
71195;BME280;58908;51.426;7.714;2024-03-23T06:05:03;98956.44;;;5.13;100.00
71195;BME280;58908;51.426;7.714;2024-03-23T06:07:29;98952.44;;;5.06;100.00
71195;BME280;58908;51.426;7.714;2024-03-23T06:09:56;98950.22;;;5.16;100.00
71195;BME280;58908;51.426;7.714;2024-03-23T06:12:22;98955.06;;;5.06;100.00
71195;BME280;58908;51.426;7.714;2024-03-23T06:14:48;98960.06;;;5.11;100.00
71195;BME280;58908;51.426;7.714;2024-03-23T06:17:14;98969.88;;;5.06;100.00
71195;BME280;58908;51.426;7.714;2024-03-23T06:19:41;98967.00;;;4.93;100.00
71195;BME280;58908;51.426;7.714;2024-03-23T06:22:07;98978.91;;;4.99;100.00
71195;BME280;58908;51.426;7.714;2024-03-23T06:24:34;98972.44;;;5.07;100.00
71195;BME280;58908;51.426;7.714;2024-03-23T06:26:59;98969.25;;;5.01;100.00
71195;BME280;58908;51.426;7.714;2024-03-23T06:29:25;98975.41;;;5.00;100.00
71195;BME280;58908;51.426;7.714;2024-03-23T06:31:54;98964.97;;;5.00;100.00
71195;BME280;58908;51.426;7.714;2024-03-23T06:34:20;98966.56;;;5.02;100.00
71195;BME280;58908;51.426;7.714;2024-03-23T06:36:47;98967.47;;;5.01;100.00
71195;BME280;58908;51.426;7.714;2024-03-23T06:39:15;98968.03;;;5.08;100.00
71195;BME280;58908;51.426;7.714;2024-03-23T06:41:40;98975.16;;;5.04;100.00
71195;BME280;58908;51.426;7.714;2024-03-23T06:44:07;98971.72;;;5.04;100.00
71195;BME280;58908;51.426;7.714;2024-03-23T06:46:33;98970.44;;;5.12;100.00
71195;BME280;58908;51.426;7.714;2024-03-23T06:48:58;98964.28;;;5.13;100.00
71195;BME280;58908;51.426;7.714;2024-03-23T06:51:25;98975.84;;;5.26;100.00
71195;BME280;58908;51.426;7.714;2024-03-23T06:53:50;98967.66;;;5.34;100.00
71195;BME280;58908;51.426;7.714;2024-03-23T06:56:18;98970.50;;;5.46;100.00
71195;BME280;58908;51.426;7.714;2024-03-23T06:58:43;98974.41;;;5.38;100.00
71195;BME280;58908;51.426;7.714;2024-03-23T07:01:09;98975.50;;;5.51;100.00
71195;BME280;58908;51.426;7.714;2024-03-23T07:03:34;98965.75;;;5.54;100.00
71195;BME280;58908;51.426;7.714;2024-03-23T07:06:01;98974.97;;;5.61;100.00
71195;BME280;58908;51.426;7.714;2024-03-23T07:08:26;98972.38;;;5.61;100.00
71195;BME280;58908;51.426;7.714;2024-03-23T07:10:53;98986.59;;;5.56;100.00
71195;BME280;58908;51.426;7.714;2024-03-23T07:13:19;98979.09;;;5.48;100.00
71195;BME280;58908;51.426;7.714;2024-03-23T07:15:50;98990.25;;;5.52;100.00
71195;BME280;58908;51.426;7.714;2024-03-23T07:18:16;98993.09;;;5.47;100.00
71195;BME280;58908;51.426;7.714;2024-03-23T07:20:42;99003.88;;;5.58;100.00
71195;BME280;58908;51.426;7.714;2024-03-23T07:23:07;98994.88;;;5.64;100.00
71195;BME280;58908;51.426;7.714;2024-03-23T07:25:33;99008.13;;;5.61;100.00
71195;BME280;58908;51.426;7.714;2024-03-23T07:27:59;99001.38;;;5.74;100.00
71195;BME280;58908;51.426;7.714;2024-03-23T07:30:26;98998.56;;;5.95;100.00
71195;BME280;58908;51.426;7.714;2024-03-23T07:32:52;99003.47;;;6.01;100.00
71195;BME280;58908;51.426;7.714;2024-03-23T07:35:19;99000.78;;;6.03;100.00
71195;BME280;58908;51.426;7.714;2024-03-23T07:37:44;99005.34;;;5.99;100.00
71195;BME280;58908;51.426;7.714;2024-03-23T07:40:11;98994.22;;;6.11;100.00
71195;BME280;58908;51.426;7.714;2024-03-23T07:42:37;98997.03;;;6.41;100.00
71195;BME280;58908;51.426;7.714;2024-03-23T07:45:03;98996.38;;;6.85;100.00
71195;BME280;58908;51.426;7.714;2024-03-23T07:47:30;98999.84;;;6.53;100.00
71195;BME280;58908;51.426;7.714;2024-03-23T07:49:56;99005.97;;;6.37;100.00
71195;BME280;58908;51.426;7.714;2024-03-23T07:52:22;99003.81;;;6.45;100.00
71195;BME280;58908;51.426;7.714;2024-03-23T07:54:48;98995.31;;;8.38;100.00
71195;BME280;58908;51.426;7.714;2024-03-23T07:57:14;99002.38;;;9.60;100.00
71195;BME280;58908;51.426;7.714;2024-03-23T07:59:39;99009.72;;;9.29;100.00
71195;BME280;58908;51.426;7.714;2024-03-23T08:02:05;99014.91;;;9.56;100.00
71195;BME280;58908;51.426;7.714;2024-03-23T08:04:32;99024.09;;;10.41;100.00
71195;BME280;58908;51.426;7.714;2024-03-23T08:06:58;99021.31;;;10.05;100.00
71195;BME280;58908;51.426;7.714;2024-03-23T08:09:24;99028.84;;;9.71;100.00
71195;BME280;58908;51.426;7.714;2024-03-23T08:11:50;99027.69;;;10.65;100.00
71195;BME280;58908;51.426;7.714;2024-03-23T08:14:15;99028.19;;;10.33;100.00
71195;BME280;58908;51.426;7.714;2024-03-23T08:16:42;99022.63;;;9.05;100.00
71195;BME280;58908;51.426;7.714;2024-03-23T08:19:13;99032.31;;;9.71;100.00
71195;BME280;58908;51.426;7.714;2024-03-23T08:21:41;99012.09;;;11.23;100.00
71195;BME280;58908;51.426;7.714;2024-03-23T08:24:06;99015.03;;;10.58;100.00
71195;BME280;58908;51.426;7.714;2024-03-23T08:26:32;99018.91;;;11.02;100.00
71195;BME280;58908;51.426;7.714;2024-03-23T08:28:58;99009.47;;;11.11;100.00
71195;BME280;58908;51.426;7.714;2024-03-23T08:31:24;98999.94;;;11.21;100.00
71195;BME280;58908;51.426;7.714;2024-03-23T08:33:49;99009.94;;;11.05;100.00
71195;BME280;58908;51.426;7.714;2024-03-23T08:36:16;98999.09;;;10.84;100.00
71195;BME280;58908;51.426;7.714;2024-03-23T08:38:43;99017.75;;;9.92;100.00
71195;BME280;58908;51.426;7.714;2024-03-23T08:41:10;99021.31;;;9.38;100.00
71195;BME280;58908;51.426;7.714;2024-03-23T08:43:36;99027.72;;;8.80;100.00
71195;BME280;58908;51.426;7.714;2024-03-23T08:46:04;99021.16;;;9.01;100.00
71195;BME280;58908;51.426;7.714;2024-03-23T08:48:30;99010.38;;;10.36;100.00
71195;BME280;58908;51.426;7.714;2024-03-23T08:51:00;99006.53;;;9.24;100.00
71195;BME280;58908;51.426;7.714;2024-03-23T08:53:27;99024.06;;;8.69;100.00
71195;BME280;58908;51.426;7.714;2024-03-23T08:55:54;99027.88;;;8.06;100.00
71195;BME280;58908;51.426;7.714;2024-03-23T08:58:20;99044.00;;;8.29;100.00
71195;BME280;58908;51.426;7.714;2024-03-23T09:00:46;99042.06;;;8.17;100.00
71195;BME280;58908;51.426;7.714;2024-03-23T09:03:12;99032.13;;;8.52;100.00
71195;BME280;58908;51.426;7.714;2024-03-23T09:05:38;99039.06;;;8.39;100.00
71195;BME280;58908;51.426;7.714;2024-03-23T09:08:04;99023.88;;;9.93;100.00
71195;BME280;58908;51.426;7.714;2024-03-23T09:10:30;99029.78;;;9.03;100.00
71195;BME280;58908;51.426;7.714;2024-03-23T09:12:57;99023.59;;;8.90;100.00
71195;BME280;58908;51.426;7.714;2024-03-23T09:15:23;99027.75;;;9.35;100.00
71195;BME280;58908;51.426;7.714;2024-03-23T09:17:48;98994.50;;;11.11;100.00
71195;BME280;58908;51.426;7.714;2024-03-23T09:20:15;99001.94;;;10.31;100.00
71195;BME280;58908;51.426;7.714;2024-03-23T09:22:40;98988.09;;;10.90;100.00
71195;BME280;58908;51.426;7.714;2024-03-23T09:25:07;99002.56;;;10.22;100.00
71195;BME280;58908;51.426;7.714;2024-03-23T09:27:32;98976.31;;;10.71;100.00
71195;BME280;58908;51.426;7.714;2024-03-23T09:30:03;98964.19;;;10.56;100.00
71195;BME280;58908;51.426;7.714;2024-03-23T09:32:30;98959.09;;;11.50;100.00
71195;BME280;58908;51.426;7.714;2024-03-23T09:34:56;98950.91;;;11.89;100.00
71195;BME280;58908;51.426;7.714;2024-03-23T09:37:21;98956.53;;;12.51;100.00
71195;BME280;58908;51.426;7.714;2024-03-23T09:39:47;98948.38;;;11.40;100.00
71195;BME280;58908;51.426;7.714;2024-03-23T09:42:13;98968.34;;;11.32;100.00
71195;BME280;58908;51.426;7.714;2024-03-23T09:44:39;99011.56;;;10.70;100.00
71195;BME280;58908;51.426;7.714;2024-03-23T09:47:06;99043.59;;;8.21;100.00
71195;BME280;58908;51.426;7.714;2024-03-23T09:49:33;99070.13;;;7.10;100.00
71195;BME280;58908;51.426;7.714;2024-03-23T09:52:01;99079.53;;;6.49;100.00
71195;BME280;58908;51.426;7.714;2024-03-23T09:54:27;99084.34;;;6.07;100.00
71195;BME280;58908;51.426;7.714;2024-03-23T09:56:53;99087.09;;;6.21;100.00
71195;BME280;58908;51.426;7.714;2024-03-23T09:59:19;99088.47;;;6.11;100.00
71195;BME280;58908;51.426;7.714;2024-03-23T10:01:44;99091.88;;;6.13;100.00
71195;BME280;58908;51.426;7.714;2024-03-23T10:04:12;99080.94;;;6.22;100.00
71195;BME280;58908;51.426;7.714;2024-03-23T10:06:58;99079.22;;;6.38;100.00
71195;BME280;58908;51.426;7.714;2024-03-23T10:09:36;99077.59;;;6.53;100.00
71195;BME280;58908;51.426;7.714;2024-03-23T10:12:07;99073.34;;;6.67;100.00
71195;BME280;58908;51.426;7.714;2024-03-23T10:14:33;99075.53;;;6.92;100.00
71195;BME280;58908;51.426;7.714;2024-03-23T10:17:06;99068.34;;;7.10;100.00
71195;BME280;58908;51.426;7.714;2024-03-23T10:19:39;99051.78;;;7.25;100.00
71195;BME280;58908;51.426;7.714;2024-03-23T10:22:04;99052.63;;;7.26;100.00
71195;BME280;58908;51.426;7.714;2024-03-23T10:24:30;99042.28;;;7.69;100.00
71195;BME280;58908;51.426;7.714;2024-03-23T10:26:56;99040.94;;;7.92;100.00
71195;BME280;58908;51.426;7.714;2024-03-23T10:29:22;99036.66;;;8.05;100.00
71195;BME280;58908;51.426;7.714;2024-03-23T10:31:48;99025.72;;;8.28;100.00
71195;BME280;58908;51.426;7.714;2024-03-23T10:34:15;99033.88;;;8.08;100.00
71195;BME280;58908;51.426;7.714;2024-03-23T10:36:42;99034.25;;;8.31;100.00
71195;BME280;58908;51.426;7.714;2024-03-23T10:39:08;99018.91;;;8.67;100.00
71195;BME280;58908;51.426;7.714;2024-03-23T10:41:35;99009.69;;;8.74;100.00
71195;BME280;58908;51.426;7.714;2024-03-23T10:44:02;99001.59;;;9.05;100.00
71195;BME280;58908;51.426;7.714;2024-03-23T10:46:27;98992.00;;;9.04;100.00
71195;BME280;58908;51.426;7.714;2024-03-23T10:48:54;98981.97;;;9.37;100.00
71195;BME280;58908;51.426;7.714;2024-03-23T10:51:19;98974.75;;;9.00;100.00
71195;BME280;58908;51.426;7.714;2024-03-23T10:53:47;98969.72;;;9.10;100.00
71195;BME280;58908;51.426;7.714;2024-03-23T10:56:12;98963.13;;;9.43;100.00
71195;BME280;58908;51.426;7.714;2024-03-23T10:58:40;98975.16;;;9.73;100.00
71195;BME280;58908;51.426;7.714;2024-03-23T11:01:06;98965.06;;;9.92;100.00
71195;BME280;58908;51.426;7.714;2024-03-23T11:03:33;98966.41;;;9.73;100.00
71195;BME280;58908;51.426;7.714;2024-03-23T11:05:58;98952.09;;;9.89;100.00
71195;BME280;58908;51.426;7.714;2024-03-23T11:08:29;98949.50;;;9.63;100.00
71195;BME280;58908;51.426;7.714;2024-03-23T11:10:57;98945.00;;;9.38;100.00
71195;BME280;58908;51.426;7.714;2024-03-23T11:13:40;98953.78;;;9.90;100.00
71195;BME280;58908;51.426;7.714;2024-03-23T11:16:12;98946.28;;;10.11;100.00
71195;BME280;58908;51.426;7.714;2024-03-23T11:18:39;98942.56;;;10.51;100.00
71195;BME280;58908;51.426;7.714;2024-03-23T11:21:05;98941.00;;;10.23;100.00
71195;BME280;58908;51.426;7.714;2024-03-23T11:23:32;98939.63;;;10.18;100.00
71195;BME280;58908;51.426;7.714;2024-03-23T11:25:59;98940.25;;;10.21;100.00
71195;BME280;58908;51.426;7.714;2024-03-23T11:28:25;98935.44;;;9.76;100.00
71195;BME280;58908;51.426;7.714;2024-03-23T11:30:51;98945.16;;;9.49;100.00
71195;BME280;58908;51.426;7.714;2024-03-23T11:33:17;98958.00;;;9.54;100.00
71195;BME280;58908;51.426;7.714;2024-03-23T11:35:43;98983.66;;;8.98;100.00
71195;BME280;58908;51.426;7.714;2024-03-23T11:38:10;99050.41;;;7.80;100.00
71195;BME280;58908;51.426;7.714;2024-03-23T11:40:45;99082.47;;;6.76;100.00
71195;BME280;58908;51.426;7.714;2024-03-23T11:43:13;99101.41;;;5.97;100.00
71195;BME280;58908;51.426;7.714;2024-03-23T11:45:40;99105.94;;;5.94;100.00
71195;BME280;58908;51.426;7.714;2024-03-23T11:48:10;99113.97;;;6.25;100.00
71195;BME280;58908;51.426;7.714;2024-03-23T11:50:38;99103.88;;;6.51;100.00
71195;BME280;58908;51.426;7.714;2024-03-23T11:53:09;99094.50;;;6.30;100.00
71195;BME280;58908;51.426;7.714;2024-03-23T11:55:38;99073.00;;;6.24;100.00
71195;BME280;58908;51.426;7.714;2024-03-23T11:58:04;99067.09;;;6.70;100.00
71195;BME280;58908;51.426;7.714;2024-03-23T12:00:31;99059.13;;;7.03;100.00
71195;BME280;58908;51.426;7.714;2024-03-23T12:02:59;99040.00;;;7.32;100.00
71195;BME280;58908;51.426;7.714;2024-03-23T12:05:26;99036.97;;;7.55;100.00
71195;BME280;58908;51.426;7.714;2024-03-23T12:07:51;99030.19;;;7.96;100.00
71195;BME280;58908;51.426;7.714;2024-03-23T12:10:18;99010.88;;;7.97;100.00
71195;BME280;58908;51.426;7.714;2024-03-23T12:12:44;99003.19;;;8.24;100.00
71195;BME280;58908;51.426;7.714;2024-03-23T12:15:10;98980.19;;;8.27;100.00
71195;BME280;58908;51.426;7.714;2024-03-23T12:17:39;98993.38;;;8.69;100.00
71195;BME280;58908;51.426;7.714;2024-03-23T12:20:05;98983.13;;;8.65;100.00
71195;BME280;58908;51.426;7.714;2024-03-23T12:22:33;98985.19;;;8.74;100.00
71195;BME280;58908;51.426;7.714;2024-03-23T12:25:00;98984.78;;;8.80;100.00
71195;BME280;58908;51.426;7.714;2024-03-23T12:27:25;98964.00;;;9.03;100.00
71195;BME280;58908;51.426;7.714;2024-03-23T12:29:52;98975.06;;;9.22;100.00
71195;BME280;58908;51.426;7.714;2024-03-23T12:32:17;98967.25;;;9.21;100.00
71195;BME280;58908;51.426;7.714;2024-03-23T12:34:46;98961.44;;;9.16;100.00
71195;BME280;58908;51.426;7.714;2024-03-23T12:37:12;98959.00;;;9.13;100.00
71195;BME280;58908;51.426;7.714;2024-03-23T12:39:38;98954.94;;;9.21;100.00
71195;BME280;58908;51.426;7.714;2024-03-23T12:42:04;98960.63;;;9.42;100.00
71195;BME280;58908;51.426;7.714;2024-03-23T12:44:30;98948.25;;;9.56;100.00
71195;BME280;58908;51.426;7.714;2024-03-23T12:46:56;98942.59;;;9.87;100.00
71195;BME280;58908;51.426;7.714;2024-03-23T12:49:25;98937.97;;;9.78;100.00
71195;BME280;58908;51.426;7.714;2024-03-23T12:51:55;98935.75;;;9.72;100.00
71195;BME280;58908;51.426;7.714;2024-03-23T12:54:21;98941.78;;;9.99;100.00
71195;BME280;58908;51.426;7.714;2024-03-23T12:56:47;98957.25;;;9.78;100.00
71195;BME280;58908;51.426;7.714;2024-03-23T12:59:14;98950.63;;;9.46;100.00
71195;BME280;58908;51.426;7.714;2024-03-23T13:01:39;98981.38;;;9.85;100.00
71195;BME280;58908;51.426;7.714;2024-03-23T13:04:05;98988.03;;;9.25;100.00
71195;BME280;58908;51.426;7.714;2024-03-23T13:06:31;98982.47;;;8.47;100.00
71195;BME280;58908;51.426;7.714;2024-03-23T13:09:00;99006.47;;;8.55;100.00
71195;BME280;58908;51.426;7.714;2024-03-23T13:11:26;98997.56;;;8.44;100.00
71195;BME280;58908;51.426;7.714;2024-03-23T13:13:52;98995.63;;;8.47;100.00
71195;BME280;58908;51.426;7.714;2024-03-23T13:16:17;98983.69;;;8.42;100.00
71195;BME280;58908;51.426;7.714;2024-03-23T13:18:44;98977.00;;;8.64;100.00
71195;BME280;58908;51.426;7.714;2024-03-23T13:21:09;98968.44;;;8.89;100.00
71195;BME280;58908;51.426;7.714;2024-03-23T13:23:35;98961.69;;;8.71;100.00
71195;BME280;58908;51.426;7.714;2024-03-23T13:26:04;98980.59;;;8.63;100.00
71195;BME280;58908;51.426;7.714;2024-03-23T13:28:30;98976.78;;;8.11;100.00
71195;BME280;58908;51.426;7.714;2024-03-23T13:30:56;98989.84;;;7.97;100.00
71195;BME280;58908;51.426;7.714;2024-03-23T13:33:24;99010.91;;;7.82;100.00
71195;BME280;58908;51.426;7.714;2024-03-23T13:35:49;99000.28;;;7.69;100.00
71195;BME280;58908;51.426;7.714;2024-03-23T13:38:16;98986.66;;;7.92;100.00
71195;BME280;58908;51.426;7.714;2024-03-23T13:40:48;98996.84;;;8.12;100.00
71195;BME280;58908;51.426;7.714;2024-03-23T13:43:16;98995.41;;;8.22;100.00
71195;BME280;58908;51.426;7.714;2024-03-23T13:45:41;98990.72;;;8.55;100.00
71195;BME280;58908;51.426;7.714;2024-03-23T13:48:07;98984.22;;;8.61;100.00
71195;BME280;58908;51.426;7.714;2024-03-23T13:50:33;98978.16;;;8.46;100.00